sensor_id;sensor_type;location;lat;lon;timestamp;pressure;altitude;pressure_sealevel;temperature;humidity
29239;BME280;16267;48.194;11.546;2023-04-08T00:01:59;96047.59;;;6.85;66.37
29239;BME280;16267;48.194;11.546;2023-04-08T00:04:24;96039.19;;;6.83;66.05
29239;BME280;16267;48.194;11.546;2023-04-08T00:06:50;96047.56;;;6.81;67.00
29239;BME280;16267;48.194;11.546;2023-04-08T00:09:16;96045.28;;;6.80;66.69
29239;BME280;16267;48.194;11.546;2023-04-08T00:11:42;96047.94;;;6.80;66.45
29239;BME280;16267;48.194;11.546;2023-04-08T00:14:07;96046.41;;;6.79;66.10
29239;BME280;16267;48.194;11.546;2023-04-08T00:16:33;96057.06;;;6.79;66.79
29239;BME280;16267;48.194;11.546;2023-04-08T00:18:59;96052.47;;;6.76;66.93
29239;BME280;16267;48.194;11.546;2023-04-08T00:21:25;96050.19;;;6.74;67.64
29239;BME280;16267;48.194;11.546;2023-04-08T00:23:53;96051.72;;;6.72;68.22
29239;BME280;16267;48.194;11.546;2023-04-08T00:26:19;96052.84;;;6.70;68.18
29239;BME280;16267;48.194;11.546;2023-04-08T00:28:45;96055.13;;;6.68;68.05
29239;BME280;16267;48.194;11.546;2023-04-08T00:31:11;96049.03;;;6.68;67.85
29239;BME280;16267;48.194;11.546;2023-04-08T00:33:37;96050.16;;;6.67;68.05
29239;BME280;16267;48.194;11.546;2023-04-08T00:36:02;96050.91;;;6.64;69.20
29239;BME280;16267;48.194;11.546;2023-04-08T00:38:28;96056.22;;;6.60;70.29
29239;BME280;16267;48.194;11.546;2023-04-08T00:40:55;96047.41;;;6.56;70.85
29239;BME280;16267;48.194;11.546;2023-04-08T00:43:20;96057.72;;;6.54;71.21
29239;BME280;16267;48.194;11.546;2023-04-08T00:45:47;96055.38;;;6.49;71.73
29239;BME280;16267;48.194;11.546;2023-04-08T00:48:13;96057.66;;;6.47;73.54
29239;BME280;16267;48.194;11.546;2023-04-08T00:50:39;96059.91;;;6.45;73.75
29239;BME280;16267;48.194;11.546;2023-04-08T00:53:05;96061.03;;;6.40;75.64
29239;BME280;16267;48.194;11.546;2023-04-08T00:55:31;96059.50;;;6.39;75.77
29239;BME280;16267;48.194;11.546;2023-04-08T00:57:57;96056.06;;;6.39;75.68
29239;BME280;16267;48.194;11.546;2023-04-08T01:00:23;96054.50;;;6.34;76.69
29239;BME280;16267;48.194;11.546;2023-04-08T01:03:11;96056.00;;;6.32;76.87
29239;BME280;16267;48.194;11.546;2023-04-08T01:06:15;96044.97;;;6.30;76.77
29239;BME280;16267;48.194;11.546;2023-04-08T01:08:43;96051.75;;;6.20;79.28
29239;BME280;16267;48.194;11.546;2023-04-08T01:11:11;96045.28;;;6.21;79.38
29239;BME280;16267;48.194;11.546;2023-04-08T01:13:41;96056.34;;;6.23;79.21
29239;BME280;16267;48.194;11.546;2023-04-08T01:16:14;96052.91;;;6.22;79.42
29239;BME280;16267;48.194;11.546;2023-04-08T01:18:43;96053.66;;;6.19;80.54
29239;BME280;16267;48.194;11.546;2023-04-08T01:21:11;96054.06;;;6.21;79.51
29239;BME280;16267;48.194;11.546;2023-04-08T01:24:05;96048.28;;;6.16;80.60
29239;BME280;16267;48.194;11.546;2023-04-08T01:26:34;96056.66;;;6.18;81.01
29239;BME280;16267;48.194;11.546;2023-04-08T01:29:01;96051.69;;;6.13;81.77
29239;BME280;16267;48.194;11.546;2023-04-08T01:31:29;96056.63;;;6.11;81.47
29239;BME280;16267;48.194;11.546;2023-04-08T01:33:56;96050.56;;;6.14;81.32
29239;BME280;16267;48.194;11.546;2023-04-08T01:36:25;96056.63;;;6.11;81.23
29239;BME280;16267;48.194;11.546;2023-04-08T01:38:51;96058.53;;;6.10;82.28
29239;BME280;16267;48.194;11.546;2023-04-08T01:41:18;96045.91;;;6.03;81.97
29239;BME280;16267;48.194;11.546;2023-04-08T01:43:46;96054.31;;;6.06;83.00
29239;BME280;16267;48.194;11.546;2023-04-08T01:46:14;96054.69;;;6.08;82.04
29239;BME280;16267;48.194;11.546;2023-04-08T01:48:40;96056.59;;;6.07;81.93
29239;BME280;16267;48.194;11.546;2023-04-08T01:51:06;96051.63;;;6.06;82.87
29239;BME280;16267;48.194;11.546;2023-04-08T01:53:33;96048.56;;;6.03;81.53
29239;BME280;16267;48.194;11.546;2023-04-08T01:56:13;96055.03;;;6.02;82.20
29239;BME280;16267;48.194;11.546;2023-04-08T01:58:43;96051.22;;;6.00;82.15
29239;BME280;16267;48.194;11.546;2023-04-08T02:01:13;96048.88;;;5.95;83.79
29239;BME280;16267;48.194;11.546;2023-04-08T02:03:42;96054.63;;;5.97;83.00
29239;BME280;16267;48.194;11.546;2023-04-08T02:06:08;96059.06;;;5.86;83.90
29239;BME280;16267;48.194;11.546;2023-04-08T02:08:34;96057.16;;;5.90;84.93
29239;BME280;16267;48.194;11.546;2023-04-08T02:11:01;96056.38;;;5.86;83.68
29239;BME280;16267;48.194;11.546;2023-04-08T02:13:29;96058.28;;;5.85;85.36
29239;BME280;16267;48.194;11.546;2023-04-08T02:16:30;96054.84;;;5.85;84.79
29239;BME280;16267;48.194;11.546;2023-04-08T02:19:10;96057.50;;;5.85;84.54
29239;BME280;16267;48.194;11.546;2023-04-08T02:21:54;96053.31;;;5.84;85.11
29239;BME280;16267;48.194;11.546;2023-04-08T02:24:21;96060.16;;;5.85;84.41
29239;BME280;16267;48.194;11.546;2023-04-08T02:26:49;96056.75;;;5.84;84.34
29239;BME280;16267;48.194;11.546;2023-04-08T02:29:18;96054.72;;;5.70;86.15
29239;BME280;16267;48.194;11.546;2023-04-08T02:31:45;96053.19;;;5.69;87.58
29239;BME280;16267;48.194;11.546;2023-04-08T02:34:15;96061.19;;;5.69;87.52
29239;BME280;16267;48.194;11.546;2023-04-08T02:36:42;96059.59;;;5.65;87.67
29239;BME280;16267;48.194;11.546;2023-04-08T02:39:10;96055.78;;;5.62;89.04
29239;BME280;16267;48.194;11.546;2023-04-08T02:41:36;96053.91;;;5.63;88.80
29239;BME280;16267;48.194;11.546;2023-04-08T02:44:02;96051.94;;;5.59;88.43
29239;BME280;16267;48.194;11.546;2023-04-08T02:46:27;96056.50;;;5.59;89.04
29239;BME280;16267;48.194;11.546;2023-04-08T02:48:53;96052.28;;;5.54;90.41
29239;BME280;16267;48.194;11.546;2023-04-08T02:51:19;96047.75;;;5.58;90.65
29239;BME280;16267;48.194;11.546;2023-04-08T02:53:45;96049.56;;;5.51;91.60
29239;BME280;16267;48.194;11.546;2023-04-08T02:56:11;96046.13;;;5.47;91.85
29239;BME280;16267;48.194;11.546;2023-04-08T02:58:37;96053.97;;;5.32;93.69
29239;BME280;16267;48.194;11.546;2023-04-08T03:01:02;96050.16;;;5.33;94.67
29239;BME280;16267;48.194;11.546;2023-04-08T03:03:28;96054.31;;;5.31;95.21
29239;BME280;16267;48.194;11.546;2023-04-08T03:05:56;96053.16;;;5.32;94.94
29239;BME280;16267;48.194;11.546;2023-04-08T03:08:23;96058.22;;;5.41;94.77
29239;BME280;16267;48.194;11.546;2023-04-08T03:10:49;96056.78;;;5.47;94.01
29239;BME280;16267;48.194;11.546;2023-04-08T03:13:15;96059.47;;;5.50;92.25
29239;BME280;16267;48.194;11.546;2023-04-08T03:15:41;96064.06;;;5.53;92.48
29239;BME280;16267;48.194;11.546;2023-04-08T03:18:07;96065.59;;;5.54;91.74
29239;BME280;16267;48.194;11.546;2023-04-08T03:20:33;96065.97;;;5.56;92.49
29239;BME280;16267;48.194;11.546;2023-04-08T03:23:00;96063.00;;;5.62;91.81
29239;BME280;16267;48.194;11.546;2023-04-08T03:25:26;96062.66;;;5.63;90.24
29239;BME280;16267;48.194;11.546;2023-04-08T03:27:54;96064.16;;;5.64;90.45
29239;BME280;16267;48.194;11.546;2023-04-08T03:30:20;96063.84;;;5.69;89.55
29239;BME280;16267;48.194;11.546;2023-04-08T03:32:46;96068.78;;;5.71;89.69
29239;BME280;16267;48.194;11.546;2023-04-08T03:35:12;96072.25;;;5.75;89.16
29239;BME280;16267;48.194;11.546;2023-04-08T03:37:37;96074.19;;;5.78;89.28
29239;BME280;16267;48.194;11.546;2023-04-08T03:40:04;96072.28;;;5.78;89.58
29239;BME280;16267;48.194;11.546;2023-04-08T03:42:30;96075.38;;;5.80;89.41
29239;BME280;16267;48.194;11.546;2023-04-08T03:44:56;96067.38;;;5.80;87.98
29239;BME280;16267;48.194;11.546;2023-04-08T03:47:25;96067.00;;;5.82;89.78
29239;BME280;16267;48.194;11.546;2023-04-08T03:49:54;96071.94;;;5.80;89.85
29239;BME280;16267;48.194;11.546;2023-04-08T03:52:20;96073.84;;;5.79;90.81
29239;BME280;16267;48.194;11.546;2023-04-08T03:54:46;96072.69;;;5.80;91.14
29239;BME280;16267;48.194;11.546;2023-04-08T03:57:12;96082.19;;;5.78;90.81
29239;BME280;16267;48.194;11.546;2023-04-08T03:59:38;96074.59;;;5.80;91.54
29239;BME280;16267;48.194;11.546;2023-04-08T04:02:05;96076.50;;;5.79;91.57
29239;BME280;16267;48.194;11.546;2023-04-08T04:04:31;96080.28;;;5.78;91.60
29239;BME280;16267;48.194;11.546;2023-04-08T04:06:58;96086.00;;;5.80;91.88
29239;BME280;16267;48.194;11.546;2023-04-08T04:09:24;96079.16;;;5.79;91.03
29239;BME280;16267;48.194;11.546;2023-04-08T04:11:49;96092.84;;;5.78;92.05
29239;BME280;16267;48.194;11.546;2023-04-08T04:14:15;96089.00;;;5.75;92.53
29239;BME280;16267;48.194;11.546;2023-04-08T04:16:41;96093.59;;;5.78;92.64
29239;BME280;16267;48.194;11.546;2023-04-08T04:19:07;96097.44;;;5.81;92.10
29239;BME280;16267;48.194;11.546;2023-04-08T04:21:32;96101.59;;;5.78;91.91
29239;BME280;16267;48.194;11.546;2023-04-08T04:23:58;96097.03;;;5.79;91.96
29239;BME280;16267;48.194;11.546;2023-04-08T04:26:24;96095.53;;;5.81;92.42
29239;BME280;16267;48.194;11.546;2023-04-08T04:28:50;96097.44;;;5.81;92.84
29239;BME280;16267;48.194;11.546;2023-04-08T04:31:20;96102.34;;;5.79;93.94
29239;BME280;16267;48.194;11.546;2023-04-08T04:33:47;96102.75;;;5.81;93.76
29239;BME280;16267;48.194;11.546;2023-04-08T04:36:14;96105.41;;;5.81;93.25
29239;BME280;16267;48.194;11.546;2023-04-08T04:38:40;96110.41;;;5.82;93.94
29239;BME280;16267;48.194;11.546;2023-04-08T04:41:07;96115.34;;;5.84;93.96
29239;BME280;16267;48.194;11.546;2023-04-08T04:43:33;96111.19;;;5.87;92.43
29239;BME280;16267;48.194;11.546;2023-04-08T04:45:59;96120.34;;;5.89;92.62
29239;BME280;16267;48.194;11.546;2023-04-08T04:48:25;96121.50;;;5.92;92.90
29239;BME280;16267;48.194;11.546;2023-04-08T04:50:59;96123.84;;;5.93;93.22
29239;BME280;16267;48.194;11.546;2023-04-08T04:53:26;96115.84;;;5.93;93.95
29239;BME280;16267;48.194;11.546;2023-04-08T04:55:52;96119.69;;;5.96;94.19
29239;BME280;16267;48.194;11.546;2023-04-08T04:58:17;96115.84;;;5.93;94.76
29239;BME280;16267;48.194;11.546;2023-04-08T05:00:44;96122.59;;;5.87;94.80
29239;BME280;16267;48.194;11.546;2023-04-08T05:03:11;96115.47;;;5.95;95.99
29239;BME280;16267;48.194;11.546;2023-04-08T05:05:37;96117.03;;;5.96;95.57
29239;BME280;16267;48.194;11.546;2023-04-08T05:08:03;96118.97;;;5.99;95.51
29239;BME280;16267;48.194;11.546;2023-04-08T05:10:29;96125.06;;;6.03;96.25
29239;BME280;16267;48.194;11.546;2023-04-08T05:12:55;96128.50;;;6.03;96.15
29239;BME280;16267;48.194;11.546;2023-04-08T05:15:21;96130.06;;;6.08;96.25
29239;BME280;16267;48.194;11.546;2023-04-08T05:17:47;96132.75;;;6.12;96.39
29239;BME280;16267;48.194;11.546;2023-04-08T05:20:12;96130.84;;;6.12;96.59
29239;BME280;16267;48.194;11.546;2023-04-08T05:22:38;96132.41;;;6.13;97.58
29239;BME280;16267;48.194;11.546;2023-04-08T05:25:05;96129.78;;;6.17;97.74
29239;BME280;16267;48.194;11.546;2023-04-08T05:27:31;96132.47;;;6.20;97.68
29239;BME280;16267;48.194;11.546;2023-04-08T05:29:56;96124.09;;;6.22;97.90
29239;BME280;16267;48.194;11.546;2023-04-08T05:32:22;96129.88;;;6.28;98.72
29239;BME280;16267;48.194;11.546;2023-04-08T05:34:48;96130.22;;;6.26;96.32
29239;BME280;16267;48.194;11.546;2023-04-08T05:37:14;96130.63;;;6.28;98.12
29239;BME280;16267;48.194;11.546;2023-04-08T05:39:39;96129.94;;;6.35;98.68
29239;BME280;16267;48.194;11.546;2023-04-08T05:42:07;96125.03;;;6.40;98.41
29239;BME280;16267;48.194;11.546;2023-04-08T05:44:32;96125.41;;;6.42;98.23
29239;BME280;16267;48.194;11.546;2023-04-08T05:46:58;96126.88;;;6.36;97.85
29239;BME280;16267;48.194;11.546;2023-04-08T05:49:24;96134.97;;;6.43;98.65
29239;BME280;16267;48.194;11.546;2023-04-08T05:51:50;96138.00;;;6.45;98.98
29239;BME280;16267;48.194;11.546;2023-04-08T05:54:16;96133.81;;;6.44;98.90
29239;BME280;16267;48.194;11.546;2023-04-08T05:56:42;96135.38;;;6.49;99.28
29239;BME280;16267;48.194;11.546;2023-04-08T05:59:10;96139.59;;;6.54;98.96
29239;BME280;16267;48.194;11.546;2023-04-08T06:01:36;96140.81;;;6.60;98.99
29239;BME280;16267;48.194;11.546;2023-04-08T06:04:02;96137.00;;;6.61;97.91
29239;BME280;16267;48.194;11.546;2023-04-08T06:06:28;96144.66;;;6.69;99.20
29239;BME280;16267;48.194;11.546;2023-04-08T06:08:53;96143.56;;;6.74;97.63
29239;BME280;16267;48.194;11.546;2023-04-08T06:11:19;96148.13;;;6.74;97.62
29239;BME280;16267;48.194;11.546;2023-04-08T06:13:45;96155.78;;;6.79;98.07
29239;BME280;16267;48.194;11.546;2023-04-08T06:16:15;96159.66;;;6.85;97.66
29239;BME280;16267;48.194;11.546;2023-04-08T06:18:44;96166.16;;;6.87;97.53
29239;BME280;16267;48.194;11.546;2023-04-08T06:21:10;96157.78;;;6.92;97.71
29239;BME280;16267;48.194;11.546;2023-04-08T06:23:36;96163.16;;;6.96;96.61
29239;BME280;16267;48.194;11.546;2023-04-08T06:26:02;96155.50;;;6.95;96.13
29239;BME280;16267;48.194;11.546;2023-04-08T06:28:31;96165.06;;;6.96;96.79
29239;BME280;16267;48.194;11.546;2023-04-08T06:30:57;96161.66;;;6.99;97.20
29239;BME280;16267;48.194;11.546;2023-04-08T06:33:23;96167.34;;;7.01;95.79
29239;BME280;16267;48.194;11.546;2023-04-08T06:35:49;96166.19;;;6.98;95.81
29239;BME280;16267;48.194;11.546;2023-04-08T06:38:15;96157.75;;;6.89;96.84
29239;BME280;16267;48.194;11.546;2023-04-08T06:40:41;96174.19;;;6.98;97.40
29239;BME280;16267;48.194;11.546;2023-04-08T06:43:07;96177.66;;;6.99;95.68
29239;BME280;16267;48.194;11.546;2023-04-08T06:45:33;96173.09;;;7.03;96.12
29239;BME280;16267;48.194;11.546;2023-04-08T06:47:59;96181.50;;;7.01;95.92
29239;BME280;16267;48.194;11.546;2023-04-08T06:50:25;96175.41;;;7.04;96.00
29239;BME280;16267;48.194;11.546;2023-04-08T06:52:51;96177.34;;;7.07;96.21
29239;BME280;16267;48.194;11.546;2023-04-08T06:55:17;96174.69;;;7.11;95.76
29239;BME280;16267;48.194;11.546;2023-04-08T06:57:42;96179.66;;;7.16;95.56
29239;BME280;16267;48.194;11.546;2023-04-08T07:00:09;96180.09;;;7.22;95.24
29239;BME280;16267;48.194;11.546;2023-04-08T07:02:35;96177.03;;;7.23;94.26
29239;BME280;16267;48.194;11.546;2023-04-08T07:05:01;96189.66;;;7.30;94.77
29239;BME280;16267;48.194;11.546;2023-04-08T07:07:27;96187.00;;;7.33;93.49
29239;BME280;16267;48.194;11.546;2023-04-08T07:09:52;96186.66;;;7.38;93.18
29239;BME280;16267;48.194;11.546;2023-04-08T07:12:18;96188.56;;;7.42;92.41
29239;BME280;16267;48.194;11.546;2023-04-08T07:14:44;96188.97;;;7.44;91.81
29239;BME280;16267;48.194;11.546;2023-04-08T07:17:09;96198.53;;;7.48;92.00
29239;BME280;16267;48.194;11.546;2023-04-08T07:19:35;96197.78;;;7.51;90.40
29239;BME280;16267;48.194;11.546;2023-04-08T07:22:01;96198.56;;;7.52;89.78
29239;BME280;16267;48.194;11.546;2023-04-08T07:24:27;96201.22;;;7.55;89.23
29239;BME280;16267;48.194;11.546;2023-04-08T07:26:53;96203.53;;;7.57;87.81
29239;BME280;16267;48.194;11.546;2023-04-08T07:29:21;96193.63;;;7.61;87.07
29239;BME280;16267;48.194;11.546;2023-04-08T07:31:47;96206.22;;;7.64;86.30
29239;BME280;16267;48.194;11.546;2023-04-08T07:34:13;96212.38;;;7.68;85.45
29239;BME280;16267;48.194;11.546;2023-04-08T07:36:39;96215.41;;;7.70;84.53
29239;BME280;16267;48.194;11.546;2023-04-08T07:39:05;96218.13;;;7.74;83.99
29239;BME280;16267;48.194;11.546;2023-04-08T07:41:31;96207.38;;;7.67;80.57
29239;BME280;16267;48.194;11.546;2023-04-08T07:43:56;96207.41;;;7.70;81.94
29239;BME280;16267;48.194;11.546;2023-04-08T07:46:22;96213.91;;;7.73;81.01
29239;BME280;16267;48.194;11.546;2023-04-08T07:48:48;96208.91;;;7.60;77.86
29239;BME280;16267;48.194;11.546;2023-04-08T07:51:14;96211.97;;;7.66;79.47
29239;BME280;16267;48.194;11.546;2023-04-08T07:53:40;96210.06;;;7.63;78.51
29239;BME280;16267;48.194;11.546;2023-04-08T07:56:15;96209.31;;;7.66;77.45
29239;BME280;16267;48.194;11.546;2023-04-08T07:58:42;96214.25;;;7.64;75.95
29239;BME280;16267;48.194;11.546;2023-04-08T08:01:17;96211.97;;;7.66;75.72
29239;BME280;16267;48.194;11.546;2023-04-08T08:03:43;96208.94;;;7.71;75.19
29239;BME280;16267;48.194;11.546;2023-04-08T08:06:10;96215.81;;;7.72;73.99
29239;BME280;16267;48.194;11.546;2023-04-08T08:08:36;96213.16;;;7.76;74.82
29239;BME280;16267;48.194;11.546;2023-04-08T08:11:02;96217.72;;;7.72;72.86
29239;BME280;16267;48.194;11.546;2023-04-08T08:13:28;96225.34;;;7.70;69.74
29239;BME280;16267;48.194;11.546;2023-04-08T08:15:54;96219.56;;;7.57;65.08
29239;BME280;16267;48.194;11.546;2023-04-08T08:18:20;96225.66;;;7.57;65.94
29239;BME280;16267;48.194;11.546;2023-04-08T08:20:46;96223.00;;;7.61;66.71
29239;BME280;16267;48.194;11.546;2023-04-08T08:23:11;96228.69;;;7.52;66.08
29239;BME280;16267;48.194;11.546;2023-04-08T08:25:37;96222.63;;;7.59;67.36
29239;BME280;16267;48.194;11.546;2023-04-08T08:28:03;96226.09;;;7.63;69.15
29239;BME280;16267;48.194;11.546;2023-04-08T08:30:29;96228.00;;;7.66;68.78
29239;BME280;16267;48.194;11.546;2023-04-08T08:32:55;96239.03;;;7.61;67.64
29239;BME280;16267;48.194;11.546;2023-04-08T08:35:23;96246.69;;;7.66;69.41
29239;BME280;16267;48.194;11.546;2023-04-08T08:37:49;96239.03;;;7.65;69.28
29239;BME280;16267;48.194;11.546;2023-04-08T08:40:15;96239.78;;;7.62;70.01
29239;BME280;16267;48.194;11.546;2023-04-08T08:42:49;96243.63;;;7.60;70.93
29239;BME280;16267;48.194;11.546;2023-04-08T08:45:17;96245.94;;;7.62;72.20
29239;BME280;16267;48.194;11.546;2023-04-08T08:47:43;96248.63;;;7.66;72.62
29239;BME280;16267;48.194;11.546;2023-04-08T08:50:09;96255.13;;;7.68;74.00
29239;BME280;16267;48.194;11.546;2023-04-08T08:52:35;96255.13;;;7.68;74.43
29239;BME280;16267;48.194;11.546;2023-04-08T08:55:01;96259.66;;;7.60;74.17
29239;BME280;16267;48.194;11.546;2023-04-08T08:57:26;96262.31;;;7.57;74.04
29239;BME280;16267;48.194;11.546;2023-04-08T08:59:52;96258.81;;;7.49;73.55
29239;BME280;16267;48.194;11.546;2023-04-08T09:02:29;96255.72;;;7.40;72.86
29239;BME280;16267;48.194;11.546;2023-04-08T09:05:01;96261.81;;;7.41;73.44
29239;BME280;16267;48.194;11.546;2023-04-08T09:07:29;96265.16;;;7.27;72.60
29239;BME280;16267;48.194;11.546;2023-04-08T09:09:57;96265.16;;;7.27;72.17
29239;BME280;16267;48.194;11.546;2023-04-08T09:12:25;96264.00;;;7.21;72.53
29239;BME280;16267;48.194;11.546;2023-04-08T09:15:04;96270.44;;;7.20;73.59
29239;BME280;16267;48.194;11.546;2023-04-08T09:17:35;96267.78;;;7.23;74.20
29239;BME280;16267;48.194;11.546;2023-04-08T09:20:05;96260.44;;;7.09;74.18
29239;BME280;16267;48.194;11.546;2023-04-08T09:25:29;96265.06;;;7.12;72.75
29239;BME280;16267;48.194;11.546;2023-04-08T09:27:56;96266.16;;;7.08;71.57
29239;BME280;16267;48.194;11.546;2023-04-08T09:30:24;96264.56;;;7.00;71.75
29239;BME280;16267;48.194;11.546;2023-04-08T09:32:56;96264.22;;;7.01;73.57
29239;BME280;16267;48.194;11.546;2023-04-08T09:35:23;96273.38;;;7.04;74.04
29239;BME280;16267;48.194;11.546;2023-04-08T09:37:50;96267.69;;;7.09;74.45
29239;BME280;16267;48.194;11.546;2023-04-08T09:40:17;96269.19;;;7.06;73.71
29239;BME280;16267;48.194;11.546;2023-04-08T09:42:47;96268.78;;;7.01;73.63
29239;BME280;16267;48.194;11.546;2023-04-08T09:45:17;96270.34;;;7.09;74.58
29239;BME280;16267;48.194;11.546;2023-04-08T09:50:19;96264.69;;;7.14;74.09
29239;BME280;16267;48.194;11.546;2023-04-08T09:52:52;96268.13;;;7.14;74.44
29239;BME280;16267;48.194;11.546;2023-04-08T09:55:21;96261.31;;;7.21;75.20
29239;BME280;16267;48.194;11.546;2023-04-08T09:58:32;96262.09;;;7.28;75.07
29239;BME280;16267;48.194;11.546;2023-04-08T10:00:51;96262.16;;;7.32;73.87
29239;BME280;16267;48.194;11.546;2023-04-08T10:03:50;96257.22;;;7.37;74.38
29239;BME280;16267;48.194;11.546;2023-04-08T10:06:18;96258.47;;;7.54;75.08
29239;BME280;16267;48.194;11.546;2023-04-08T10:08:46;96256.56;;;7.58;74.41
29239;BME280;16267;48.194;11.546;2023-04-08T10:11:14;96256.28;;;7.78;74.08
29239;BME280;16267;48.194;11.546;2023-04-08T10:13:41;96252.91;;;7.88;74.22
29239;BME280;16267;48.194;11.546;2023-04-08T10:16:21;96264.38;;;7.89;72.68
29239;BME280;16267;48.194;11.546;2023-04-08T10:18:49;96256.75;;;7.87;71.47
29239;BME280;16267;48.194;11.546;2023-04-08T10:21:40;96257.84;;;7.82;71.15
29239;BME280;16267;48.194;11.546;2023-04-08T10:24:14;96262.81;;;7.84;70.85
29239;BME280;16267;48.194;11.546;2023-04-08T10:26:44;96254.44;;;7.89;71.76
29239;BME280;16267;48.194;11.546;2023-04-08T10:31:42;96254.06;;;7.87;72.15
29239;BME280;16267;48.194;11.546;2023-04-08T10:36:43;96257.09;;;7.82;70.83
29239;BME280;16267;48.194;11.546;2023-04-08T10:39:09;96257.84;;;7.86;72.11
29239;BME280;16267;48.194;11.546;2023-04-08T10:41:49;96259.38;;;7.83;71.98
29239;BME280;16267;48.194;11.546;2023-04-08T10:44:20;96260.13;;;7.80;72.01
29239;BME280;16267;48.194;11.546;2023-04-08T10:46:48;96264.34;;;7.81;71.88
29239;BME280;16267;48.194;11.546;2023-04-08T10:49:15;96259.41;;;7.87;72.82
29239;BME280;16267;48.194;11.546;2023-04-08T10:51:42;96260.94;;;7.85;72.36
29239;BME280;16267;48.194;11.546;2023-04-08T10:54:17;96261.28;;;7.83;72.30
29239;BME280;16267;48.194;11.546;2023-04-08T10:59:16;96262.44;;;7.82;72.96
29239;BME280;16267;48.194;11.546;2023-04-08T11:01:44;96263.94;;;7.79;73.20
29239;BME280;16267;48.194;11.546;2023-04-08T11:04:17;96263.91;;;7.72;73.18
29239;BME280;16267;48.194;11.546;2023-04-08T11:06:45;96268.13;;;7.73;73.42
29239;BME280;16267;48.194;11.546;2023-04-08T11:09:13;96266.97;;;7.78;74.16
29239;BME280;16267;48.194;11.546;2023-04-08T11:11:44;96264.72;;;7.80;73.28
29239;BME280;16267;48.194;11.546;2023-04-08T11:14:10;96267.03;;;7.81;73.33
29239;BME280;16267;48.194;11.546;2023-04-08T11:16:37;96265.88;;;7.82;72.89
29239;BME280;16267;48.194;11.546;2023-04-08T11:19:04;96268.91;;;7.81;73.02
29239;BME280;16267;48.194;11.546;2023-04-08T11:21:34;96271.56;;;7.81;72.99
29239;BME280;16267;48.194;11.546;2023-04-08T11:24:00;96273.88;;;7.82;72.99
29239;BME280;16267;48.194;11.546;2023-04-08T11:26:26;96263.97;;;7.83;73.53
29239;BME280;16267;48.194;11.546;2023-04-08T11:28:54;96273.91;;;7.86;73.40
29239;BME280;16267;48.194;11.546;2023-04-08T11:31:21;96275.06;;;7.89;73.81
29239;BME280;16267;48.194;11.546;2023-04-08T11:33:48;96269.72;;;7.92;73.67
29239;BME280;16267;48.194;11.546;2023-04-08T11:36:17;96274.69;;;7.94;73.43
29239;BME280;16267;48.194;11.546;2023-04-08T11:38:44;96281.19;;;7.93;73.13
29239;BME280;16267;48.194;11.546;2023-04-08T11:41:10;96280.03;;;7.94;72.57
29239;BME280;16267;48.194;11.546;2023-04-08T11:43:38;96281.97;;;7.97;72.77
29239;BME280;16267;48.194;11.546;2023-04-08T11:46:10;96281.22;;;7.96;71.91
29239;BME280;16267;48.194;11.546;2023-04-08T11:48:37;96281.56;;;7.95;71.89
29239;BME280;16267;48.194;11.546;2023-04-08T11:51:07;96277.38;;;7.94;70.93
29239;BME280;16267;48.194;11.546;2023-04-08T11:53:35;96280.03;;;7.94;70.99
29239;BME280;16267;48.194;11.546;2023-04-08T11:56:18;96287.66;;;7.92;70.63
29239;BME280;16267;48.194;11.546;2023-04-08T11:58:44;96280.78;;;7.87;71.14
29239;BME280;16267;48.194;11.546;2023-04-08T12:01:11;96284.22;;;7.88;70.95
29239;BME280;16267;48.194;11.546;2023-04-08T12:03:37;96284.97;;;7.88;71.13
29239;BME280;16267;48.194;11.546;2023-04-08T12:06:03;96291.09;;;7.85;70.47
29239;BME280;16267;48.194;11.546;2023-04-08T12:08:30;96288.81;;;7.87;71.01
29239;BME280;16267;48.194;11.546;2023-04-08T12:10:55;96284.97;;;7.88;70.99
29239;BME280;16267;48.194;11.546;2023-04-08T12:13:21;96293.75;;;7.89;70.58
29239;BME280;16267;48.194;11.546;2023-04-08T12:15:47;96299.88;;;7.89;70.82
29239;BME280;16267;48.194;11.546;2023-04-08T12:18:13;96301.38;;;7.87;70.49
29239;BME280;16267;48.194;11.546;2023-04-08T12:20:38;96302.13;;;7.83;69.82
29239;BME280;16267;48.194;11.546;2023-04-08T12:23:04;96309.38;;;7.83;70.79
29239;BME280;16267;48.194;11.546;2023-04-08T12:25:30;96304.03;;;7.83;70.67
29239;BME280;16267;48.194;11.546;2023-04-08T12:27:56;96306.34;;;7.85;71.00
29239;BME280;16267;48.194;11.546;2023-04-08T12:30:22;96304.81;;;7.83;70.81
29239;BME280;16267;48.194;11.546;2023-04-08T12:32:47;96302.53;;;7.86;70.82
29239;BME280;16267;48.194;11.546;2023-04-08T12:35:13;96295.66;;;7.85;70.75
29239;BME280;16267;48.194;11.546;2023-04-08T12:37:39;96302.88;;;7.84;70.89
29239;BME280;16267;48.194;11.546;2023-04-08T12:40:06;96306.34;;;7.85;70.76
29239;BME280;16267;48.194;11.546;2023-04-08T12:42:32;96309.03;;;7.85;70.70
29239;BME280;16267;48.194;11.546;2023-04-08T12:44:59;96305.94;;;7.82;70.80
29239;BME280;16267;48.194;11.546;2023-04-08T12:47:25;96310.53;;;7.82;70.91
29239;BME280;16267;48.194;11.546;2023-04-08T12:49:51;96299.84;;;7.82;71.01
29239;BME280;16267;48.194;11.546;2023-04-08T12:52:17;96312.44;;;7.81;70.92
29239;BME280;16267;48.194;11.546;2023-04-08T12:54:43;96316.25;;;7.80;70.67
29239;BME280;16267;48.194;11.546;2023-04-08T12:57:09;96315.84;;;7.78;71.27
29239;BME280;16267;48.194;11.546;2023-04-08T12:59:35;96314.31;;;7.77;71.43
29239;BME280;16267;48.194;11.546;2023-04-08T13:02:02;96314.69;;;7.76;71.60
29239;BME280;16267;48.194;11.546;2023-04-08T13:04:28;96318.50;;;7.75;71.46
29239;BME280;16267;48.194;11.546;2023-04-08T13:06:53;96320.03;;;7.76;71.51
29239;BME280;16267;48.194;11.546;2023-04-08T13:09:20;96311.63;;;7.74;72.06
29239;BME280;16267;48.194;11.546;2023-04-08T13:11:45;96314.66;;;7.72;72.29
29239;BME280;16267;48.194;11.546;2023-04-08T13:14:11;96314.25;;;7.70;73.26
29239;BME280;16267;48.194;11.546;2023-04-08T13:16:38;96314.66;;;7.69;72.70